Time,TemperatureF,DewpointF,PressureIn,WindDirection,WindDirectionDegrees,WindSpeedMPH,WindSpeedGustMPH,Humidity,HourlyPrecipIn,Conditions,Clouds,dailyrainin,SoftwareType,DateUTC
2013-01-26 00:22:00,34.0,-99.9,-100.00,ENE,61,14.0,21.0,-999,-99.99,,,-99.99,,2013-01-26 07:22:00,
2013-01-26 00:30:00,32.0,-99.9,-100.00,ENE,67,11.0,16.0,-999,-99.99,,,-99.99,,2013-01-26 07:30:00,
2013-01-26 01:22:00,32.0,-99.9,-100.00,ENE,67,11.0,16.0,-999,-99.99,,,-99.99,,2013-01-26 08:22:00,
2013-01-26 01:30:00,28.0,-99.9,-100.00,East,80,7.0,10.0,-999,-99.99,,,-99.99,,2013-01-26 08:30:00,
2013-01-26 02:22:00,28.0,-99.9,-100.00,East,80,7.0,10.0,-999,-99.99,,,-99.99,,2013-01-26 09:22:00,
2013-01-26 02:30:00,34.0,-99.9,-100.00,NE,39,22.0,29.0,-999,-99.99,,,-99.99,,2013-01-26 09:30:00,
2013-01-26 03:22:00,34.0,-99.9,-100.00,NE,39,22.0,29.0,-999,-99.99,,,-99.99,,2013-01-26 10:22:00,
2013-01-26 03:30:00,34.0,-99.9,-100.00,NE,35,21.0,31.0,-999,-99.99,,,-99.99,,2013-01-26 10:30:00,
2013-01-26 04:22:00,34.0,-99.9,-100.00,NE,35,21.0,31.0,-999,-99.99,,,-99.99,,2013-01-26 11:22:00,
2013-01-26 04:30:00,32.0,-99.9,-100.00,NE,39,21.0,27.0,-999,-99.99,,,-99.99,,2013-01-26 11:30:00,
2013-01-26 05:23:00,32.0,-99.9,-100.00,NE,39,21.0,27.0,-999,-99.99,,,-99.99,,2013-01-26 12:23:00,
2013-01-26 05:30:00,28.0,-99.9,-100.00,East,94,13.0,16.0,-999,-99.99,,,-99.99,,2013-01-26 12:30:00,
2013-01-26 06:22:00,28.0,-99.9,-100.00,East,94,13.0,16.0,-999,-99.99,,,-99.99,,2013-01-26 13:22:00,
2013-01-26 06:30:00,30.0,-99.9,-100.00,ENE,59,27.0,31.0,-999,-99.99,,,-99.99,,2013-01-26 13:30:00,
2013-01-26 07:22:00,30.0,-99.9,-100.00,ENE,59,27.0,31.0,-999,-99.99,,,-99.99,,2013-01-26 14:22:00,
2013-01-26 07:30:00,30.0,-99.9,-100.00,ENE,66,26.0,26.0,-999,-99.99,,,-99.99,,2013-01-26 14:30:00,
2013-01-26 08:22:00,30.0,-99.9,-100.00,ENE,66,26.0,26.0,-999,-99.99,,,-99.99,,2013-01-26 15:22:00,
2013-01-26 08:30:00,32.0,-99.9,-100.00,ENE,58,26.0,34.0,-999,-99.99,,,-99.99,,2013-01-26 15:30:00,
2013-01-26 09:22:00,32.0,-99.9,-100.00,ENE,58,26.0,34.0,-999,-99.99,,,-99.99,,2013-01-26 16:22:00,
2013-01-26 09:30:00,34.0,-99.9,-100.00,NE,51,18.0,31.0,-999,-99.99,,,-99.99,,2013-01-26 16:30:00,
2013-01-26 10:03:00,34.0,-99.9,-100.00,NE,51,18.0,31.0,-999,-99.99,,,-99.99,,2013-01-26 17:03:00,
2013-01-26 10:13:00,34.0,-99.9,-100.00,NE,51,18.0,31.0,-999,-99.99,,,-99.99,,2013-01-26 17:13:00,
2013-01-26 10:23:00,34.0,-99.9,-100.00,NE,51,18.0,31.0,-999,-99.99,,,-99.99,,2013-01-26 17:23:00,
2013-01-26 10:30:00,37.0,-99.9,-100.00,ENE,58,16.0,20.0,-999,-99.99,,,-99.99,,2013-01-26 17:30:00,
2013-01-26 11:03:00,37.0,-99.9,-100.00,ENE,58,16.0,20.0,-999,-99.99,,,-99.99,,2013-01-26 18:03:00,
2013-01-26 11:12:00,37.0,-99.9,-100.00,ENE,58,16.0,20.0,-999,-99.99,,,-99.99,,2013-01-26 18:12:00,
2013-01-26 11:22:00,37.0,-99.9,-100.00,ENE,58,16.0,20.0,-999,-99.99,,,-99.99,,2013-01-26 18:22:00,
2013-01-26 11:30:00,37.0,-99.9,-100.00,NE,35,13.0,18.0,-999,-99.99,,,-99.99,,2013-01-26 18:30:00,
2013-01-26 12:03:00,37.0,-99.9,-100.00,NE,35,13.0,18.0,-999,-99.99,,,-99.99,,2013-01-26 19:03:00,
2013-01-26 12:12:00,37.0,-99.9,-100.00,NE,35,13.0,18.0,-999,-99.99,,,-99.99,,2013-01-26 19:12:00,
2013-01-26 12:23:00,37.0,-99.9,-100.00,NE,35,13.0,18.0,-999,-99.99,,,-99.99,,2013-01-26 19:23:00,
2013-01-26 12:30:00,41.0,-99.9,-100.00,NE,34,7.0,10.0,-999,-99.99,,,-99.99,,2013-01-26 19:30:00,
2013-01-26 13:03:00,41.0,-99.9,-100.00,NE,34,7.0,10.0,-999,-99.99,,,-99.99,,2013-01-26 20:03:00,
2013-01-26 13:12:00,41.0,-99.9,-100.00,NE,34,7.0,10.0,-999,-99.99,,,-99.99,,2013-01-26 20:12:00,
2013-01-26 13:22:00,41.0,-99.9,-100.00,NE,34,7.0,10.0,-999,-99.99,,,-99.99,,2013-01-26 20:22:00,
2013-01-26 14:03:00,43.0,-99.9,-100.00,NE,55,6.0,7.0,-999,-99.99,,,-99.99,,2013-01-26 21:03:00,
2013-01-26 14:12:00,43.0,-99.9,-100.00,NE,55,6.0,7.0,-999,-99.99,,,-99.99,,2013-01-26 21:12:00,
2013-01-26 14:23:00,43.0,-99.9,-100.00,NE,55,6.0,7.0,-999,-99.99,,,-99.99,,2013-01-26 21:23:00,
2013-01-26 15:02:00,41.0,-99.9,-100.00,NE,46,5.0,8.0,-999,-99.99,,,-99.99,,2013-01-26 22:02:00,
2013-01-26 15:12:00,41.0,-99.9,-100.00,NE,46,5.0,8.0,-999,-99.99,,,-99.99,,2013-01-26 22:12:00,
2013-01-26 15:22:00,41.0,-99.9,-100.00,NE,46,5.0,8.0,-999,-99.99,,,-99.99,,2013-01-26 22:22:00,
2013-01-26 16:02:00,43.0,-99.9,-100.00,NNE,26,1.0,2.0,-999,-99.99,,,-99.99,,2013-01-26 23:02:00,
2013-01-26 16:12:00,43.0,-99.9,-100.00,NNE,26,1.0,2.0,-999,-99.99,,,-99.99,,2013-01-26 23:12:00,
2013-01-26 16:22:00,43.0,-99.9,-100.00,NNE,26,1.0,2.0,-999,-99.99,,,-99.99,,2013-01-26 23:22:00,
2013-01-26 17:02:00,39.0,-99.9,-100.00,ENE,60,4.0,4.0,-999,-99.99,,,-99.99,,2013-01-27 00:02:00,
2013-01-26 17:12:00,39.0,-99.9,-100.00,ENE,60,4.0,4.0,-999,-99.99,,,-99.99,,2013-01-27 00:12:00,
2013-01-26 17:22:00,39.0,-99.9,-100.00,ENE,60,4.0,4.0,-999,-99.99,,,-99.99,,2013-01-27 00:22:00,
2013-01-26 18:02:00,37.0,-99.9,-100.00,NE,44,7.0,7.0,-999,-99.99,,,-99.99,,2013-01-27 01:02:00,
2013-01-26 18:11:00,37.0,-99.9,-100.00,NE,44,7.0,7.0,-999,-99.99,,,-99.99,,2013-01-27 01:11:00,
2013-01-26 18:22:00,37.0,-99.9,-100.00,NE,44,7.0,7.0,-999,-99.99,,,-99.99,,2013-01-27 01:22:00,
2013-01-26 19:02:00,36.0,-99.9,-100.00,North,10,9.0,10.0,-999,-99.99,,,-99.99,,2013-01-27 02:02:00,
2013-01-26 19:12:00,36.0,-99.9,-100.00,North,10,9.0,10.0,-999,-99.99,,,-99.99,,2013-01-27 02:12:00,
2013-01-26 19:22:00,36.0,-99.9,-100.00,North,10,9.0,10.0,-999,-99.99,,,-99.99,,2013-01-27 02:22:00,
2013-01-26 20:02:00,34.0,-99.9,-100.00,East,98,3.0,6.0,-999,-99.99,,,-99.99,,2013-01-27 03:02:00,
2013-01-26 20:12:00,34.0,-99.9,-100.00,East,98,3.0,6.0,-999,-99.99,,,-99.99,,2013-01-27 03:12:00,
2013-01-26 20:22:00,34.0,-99.9,-100.00,East,98,3.0,6.0,-999,-99.99,,,-99.99,,2013-01-27 03:22:00,
2013-01-26 21:02:00,32.0,-99.9,-100.00,East,99,2.0,5.0,-999,-99.99,,,-99.99,,2013-01-27 04:02:00,
2013-01-26 21:12:00,32.0,-99.9,-100.00,East,99,2.0,5.0,-999,-99.99,,,-99.99,,2013-01-27 04:12:00,
2013-01-26 21:22:00,32.0,-99.9,-100.00,East,99,2.0,5.0,-999,-99.99,,,-99.99,,2013-01-27 04:22:00,
2013-01-26 22:04:00,32.0,-99.9,-100.00,ENE,71,3.0,4.0,-999,-99.99,,,-99.99,,2013-01-27 05:04:00,
2013-01-26 22:12:00,32.0,-99.9,-100.00,ENE,71,3.0,4.0,-999,-99.99,,,-99.99,,2013-01-27 05:12:00,
2013-01-26 22:22:00,32.0,-99.9,-100.00,ENE,71,3.0,4.0,-999,-99.99,,,-99.99,,2013-01-27 05:22:00,
2013-01-26 23:02:00,27.0,-99.9,-100.00,North,8,2.0,2.0,-999,-99.99,,,-99.99,,2013-01-27 06:02:00,
2013-01-26 23:11:00,27.0,-99.9,-100.00,North,8,2.0,2.0,-999,-99.99,,,-99.99,,2013-01-27 06:11:00,
2013-01-26 23:22:00,27.0,-99.9,-100.00,North,8,2.0,2.0,-999,-99.99,,,-99.99,,2013-01-27 06:22:00,